Herrick, South Dakota
Current Conditions -  °F | °C
As of 5:53 AM on Friday 31 Oct 2014 (Local Time) from KICR Reporting Station
Clear Clear  
Wind Chill: 11°   Ceiling: Unl
Heat Index: 19°   Visibility: 10mi
Dew Point: 15°   Wind: 6mph
Humidity: 85%   Direction: 220°SW
Pressure: 30.56"   Gusts: NA
Location:  43.11°N, 99.19°W
Report Text: KICR 311053Z AUTO 22005KT 10SM CLR M07/M09 A3056 RMK AO2 SLP372 T10721094
Loading
Personal Weather Stations






























Interactive Weather Map
Tropical Storm Tracking
New forecast layout! Learn more

10-Day Weather Forecast

Advertisements
Track Severe Weather on mobile